Time;durP1;ratioP1;P1;durP2;ratioP2;P2;SDS_P1;SDS_P2;PMS_P1;PMS_P2;Temp;Humidity;BMP_temperature;BMP_pressure;BME280_temperature;BME280_humidity;BME280_pressure;Samples;Min_cycle;Max_cycle;Signal;HPM_P1;HPM_P2
2021/10/14 00:01:58;;;;;;;;;;;15.70;99.90;;;;;;5076270;28;977;-47
2021/10/14 00:04:24;;;;;;;;;;;15.60;99.90;;;;;;5076898;28;919;-48
2021/10/14 00:06:50;;;;;;;;;;;15.60;99.90;;;;;;5076629;28;910;-47
2021/10/14 00:09:16;;;;;;;;;;;15.60;99.90;;;;;;5076896;28;1057;-47
2021/10/14 00:11:44;;;;;;;;;;;15.60;99.90;;;;;;5059273;28;877;-48
2021/10/14 00:14:10;;;;;;;;;;;15.60;99.90;;;;;;5076472;28;1974;-47
2021/10/14 00:16:35;;;;;;;;;;;15.60;99.90;;;;;;5076544;28;971;-47
2021/10/14 00:19:02;;;;;;;;;;;15.60;99.90;;;;;;5076720;28;920;-47
2021/10/14 00:21:28;;;;;;;;;;;15.60;99.90;;;;;;5076107;28;1016;-47
2021/10/14 00:23:54;;;;;;;;;;;15.60;99.90;;;;;;5076650;28;900;-46
2021/10/14 00:26:20;;;;;;;;;;;15.60;99.90;;;;;;5076627;28;844;-46
2021/10/14 00:28:48;;;;;;;;;;;15.50;99.90;;;;;;5076312;28;1002;-46
2021/10/14 00:31:15;;;;;;;;;;;15.50;99.90;;;;;;5076329;28;967;-46
2021/10/14 00:33:41;;;;;;;;;;;15.50;99.90;;;;;;5076454;28;1981;-46
2021/10/14 00:36:08;;;;;;;;;;;15.50;99.90;;;;;;5076257;28;1677;-46
2021/10/14 00:38:34;;;;;;;;;;;15.50;99.90;;;;;;5076359;28;963;-46
2021/10/14 00:41:00;;;;;;;;;;;15.50;99.90;;;;;;5076514;28;982;-46
2021/10/14 00:43:27;;;;;;;;;;;15.50;99.90;;;;;;5076233;28;820;-46
2021/10/14 00:45:54;;;;;;;;;;;15.50;99.90;;;;;;5076067;28;995;-47
2021/10/14 00:48:21;;;;;;;;;;;15.50;99.90;;;;;;5075707;28;1094;-46
2021/10/14 00:50:48;;;;;;;;;;;15.50;99.90;;;;;;5076165;28;1055;-46
2021/10/14 00:53:14;;;;;;;;;;;15.50;99.90;;;;;;5008850;28;1898;-46
2021/10/14 00:55:40;;;;;;;;;;;15.40;99.90;;;;;;5014955;28;1004;-46
2021/10/14 00:58:06;;;;;;;;;;;15.40;99.90;;;;;;5014741;28;1066;-46
2021/10/14 01:00:32;;;;;;;;;;;15.40;99.90;;;;;;5014725;28;909;-47
2021/10/14 01:02:57;;;;;;;;;;;15.40;99.90;;;;;;5014721;28;909;-46
2021/10/14 01:05:25;;;;;;;;;;;15.40;99.90;;;;;;5014648;28;1037;-46
2021/10/14 01:07:53;;;;;;;;;;;15.40;99.90;;;;;;5014315;28;1103;-46
2021/10/14 01:10:21;;;;;;;;;;;15.40;99.90;;;;;;5014634;28;992;-46
2021/10/14 01:12:47;;;;;;;;;;;15.40;99.90;;;;;;5014573;28;1914;-46
2021/10/14 01:15:18;;;;;;;;;;;15.40;99.90;;;;;;5014877;28;992;-46
2021/10/14 01:17:44;;;;;;;;;;;15.30;99.90;;;;;;5015269;28;979;-46
2021/10/14 01:20:11;;;;;;;;;;;15.30;99.90;;;;;;5014556;28;952;-46
2021/10/14 01:22:37;;;;;;;;;;;15.30;99.90;;;;;;5032709;23;1761;-47
2021/10/14 01:25:06;;;;;;;;;;;15.30;99.90;;;;;;5053480;28;1063;-47
2021/10/14 01:27:33;;;;;;;;;;;15.30;99.90;;;;;;5021053;28;1149;-47
2021/10/14 01:30:03;;;;;;;;;;;15.30;99.90;;;;;;5021803;28;1078;-48
2021/10/14 01:32:32;;;;;;;;;;;15.30;99.90;;;;;;5054118;28;1027;-47
2021/10/14 01:35:00;;;;;;;;;;;15.30;99.90;;;;;;5004630;28;1911;-48
2021/10/14 01:37:29;;;;;;;;;;;15.30;99.90;;;;;;5005295;28;1171;-47
2021/10/14 01:39:57;;;;;;;;;;;15.30;99.90;;;;;;5055610;28;1346;-47
2021/10/14 01:42:23;;;;;;;;;;;15.30;99.90;;;;;;5050605;28;1589;-47
2021/10/14 01:44:52;;;;;;;;;;;15.20;99.90;;;;;;5045324;28;968;-48
2021/10/14 01:47:19;;;;;;;;;;;15.20;99.90;;;;;;5021362;28;1611;-47
2021/10/14 01:49:45;;;;;;;;;;;15.20;99.90;;;;;;5037689;28;989;-46
2021/10/14 01:52:12;;;;;;;;;;;15.20;99.90;;;;;;5020367;28;1272;-46
2021/10/14 01:54:38;;;;;;;;;;;15.20;99.90;;;;;;5037554;28;1906;-46
2021/10/14 01:57:04;;;;;;;;;;;15.20;99.90;;;;;;5023583;28;1642;-46
2021/10/14 01:59:31;;;;;;;;;;;15.20;99.90;;;;;;5024707;28;1177;-46
2021/10/14 02:02:01;;;;;;;;;;;15.20;99.90;;;;;;5040733;28;976;-46
2021/10/14 02:04:37;;;;;;;;;;;15.20;99.90;;;;;;5058300;28;906;-46
2021/10/14 02:07:03;;;;;;;;;;;15.20;99.90;;;;;;5058366;28;1190;-46
2021/10/14 02:09:31;;;;;;;;;;;15.20;99.90;;;;;;5024618;28;1066;-47
2021/10/14 02:11:57;;;;;;;;;;;15.20;99.90;;;;;;5058780;28;1067;-46
2021/10/14 02:14:24;;;;;;;;;;;15.10;99.90;;;;;;5058980;28;1972;-47
2021/10/14 02:16:51;;;;;;;;;;;15.10;99.90;;;;;;5057900;28;1028;-46
2021/10/14 02:19:20;;;;;;;;;;;15.10;99.90;;;;;;5041723;28;910;-46
2021/10/14 02:21:46;;;;;;;;;;;15.10;99.90;;;;;;5058938;28;906;-46
2021/10/14 02:24:12;;;;;;;;;;;15.10;99.90;;;;;;5058659;28;1179;-46
2021/10/14 02:26:39;;;;;;;;;;;15.10;99.90;;;;;;5040229;28;1067;-46
2021/10/14 02:29:05;;;;;;;;;;;15.10;99.90;;;;;;5040359;28;1044;-46
2021/10/14 02:31:33;;;;;;;;;;;15.10;99.90;;;;;;5039834;28;1104;-46
2021/10/14 02:33:59;;;;;;;;;;;15.10;99.90;;;;;;5059184;28;1909;-46
2021/10/14 02:36:27;;;;;;;;;;;15.10;99.90;;;;;;5040232;28;2579;-46
2021/10/14 02:38:54;;;;;;;;;;;15.10;99.90;;;;;;5058103;28;1051;-46
2021/10/14 02:41:20;;;;;;;;;;;15.00;99.90;;;;;;5058535;28;784;-46
2021/10/14 02:43:46;;;;;;;;;;;15.00;99.90;;;;;;5057004;28;1076;-46
2021/10/14 02:46:14;;;;;;;;;;;15.00;99.90;;;;;;5058037;28;914;-46
2021/10/14 02:48:41;;;;;;;;;;;15.00;99.90;;;;;;5058435;28;885;-46
2021/10/14 02:51:08;;;;;;;;;;;15.00;99.90;;;;;;5057765;28;963;-46
2021/10/14 02:53:35;;;;;;;;;;;15.00;99.90;;;;;;5057877;28;1906;-46
2021/10/14 02:56:02;;;;;;;;;;;15.00;99.90;;;;;;5023150;28;948;-46
2021/10/14 02:58:30;;;;;;;;;;;15.00;99.90;;;;;;5057043;28;971;-46
2021/10/14 03:00:58;;;;;;;;;;;15.00;99.90;;;;;;5023867;28;1163;-46
2021/10/14 03:03:24;;;;;;;;;;;15.00;99.90;;;;;;5040602;28;872;-46
2021/10/14 03:05:49;;;;;;;;;;;14.90;99.90;;;;;;5058095;28;918;-46
2021/10/14 03:08:16;;;;;;;;;;;14.90;99.90;;;;;;5056841;28;1066;-46
2021/10/14 03:10:44;;;;;;;;;;;14.90;99.90;;;;;;5058030;28;938;-46
2021/10/14 03:13:12;;;;;;;;;;;14.90;99.90;;;;;;5057904;28;1907;-46
2021/10/14 03:15:38;;;;;;;;;;;14.90;99.90;;;;;;5040074;28;1166;-46
2021/10/14 03:18:06;;;;;;;;;;;14.90;99.90;;;;;;5023688;28;995;-46
2021/10/14 03:20:32;;;;;;;;;;;14.90;99.90;;;;;;5056760;28;1057;-46
2021/10/14 03:22:59;;;;;;;;;;;14.90;99.90;;;;;;5037785;28;1132;-46
2021/10/14 03:25:27;;;;;;;;;;;14.90;99.90;;;;;;5057332;28;967;-46
2021/10/14 03:27:53;;;;;;;;;;;14.90;99.90;;;;;;5056481;28;884;-46
2021/10/14 03:30:19;;;;;;;;;;;14.80;99.90;;;;;;5057291;28;1138;-46
2021/10/14 03:32:47;;;;;;;;;;;14.80;99.90;;;;;;5056132;28;1046;-46
2021/10/14 03:35:18;;;;;;;;;;;14.80;99.90;;;;;;5057501;28;1910;-46
2021/10/14 03:37:47;;;;;;;;;;;14.80;99.90;;;;;;5023014;28;1207;-46
2021/10/14 03:40:16;;;;;;;;;;;14.80;99.90;;;;;;5006511;28;1017;-46
2021/10/14 03:42:43;;;;;;;;;;;14.80;99.90;;;;;;5039167;28;904;-46
2021/10/14 03:45:09;;;;;;;;;;;14.80;99.90;;;;;;5056698;28;911;-46
2021/10/14 03:47:35;;;;;;;;;;;14.80;99.90;;;;;;5006368;28;955;-46
2021/10/14 03:50:02;;;;;;;;;;;14.80;99.90;;;;;;5057288;28;960;-46
2021/10/14 03:52:28;;;;;;;;;;;14.80;99.90;;;;;;5017346;28;1478;-46
2021/10/14 03:54:55;;;;;;;;;;;14.70;99.90;;;;;;5035561;28;1977;-46
2021/10/14 03:57:23;;;;;;;;;;;14.80;99.90;;;;;;5019235;28;960;-46
2021/10/14 03:59:52;;;;;;;;;;;14.80;99.90;;;;;;5035312;28;987;-46
2021/10/14 04:02:18;;;;;;;;;;;14.80;99.90;;;;;;5001833;28;1083;-46
2021/10/14 04:04:46;;;;;;;;;;;14.80;99.90;;;;;;5035279;28;1090;-46
2021/10/14 04:07:13;;;;;;;;;;;14.70;99.90;;;;;;5002485;28;1678;-46
2021/10/14 04:09:41;;;;;;;;;;;14.80;99.90;;;;;;5034633;28;1066;-46
2021/10/14 04:12:08;;;;;;;;;;;14.70;99.90;;;;;;5035178;28;959;-46
2021/10/14 04:14:36;;;;;;;;;;;14.80;99.90;;;;;;5002372;28;1899;-46
2021/10/14 04:17:04;;;;;;;;;;;14.70;99.90;;;;;;5035620;28;897;-46
2021/10/14 04:19:30;;;;;;;;;;;14.70;99.90;;;;;;5018899;28;1027;-46
2021/10/14 04:21:56;;;;;;;;;;;14.70;99.90;;;;;;5034814;28;1346;-46
2021/10/14 04:24:26;;;;;;;;;;;14.70;99.90;;;;;;5051361;28;1063;-46
2021/10/14 04:26:53;;;;;;;;;;;14.70;99.90;;;;;;5056365;28;1050;-46
2021/10/14 04:29:20;;;;;;;;;;;14.70;99.90;;;;;;5056454;28;992;-46
2021/10/14 04:31:46;;;;;;;;;;;14.70;99.90;;;;;;5056555;28;868;-46
2021/10/14 04:34:17;;;;;;;;;;;14.70;99.90;;;;;;5021835;28;1910;-46
2021/10/14 04:36:44;;;;;;;;;;;14.70;99.90;;;;;;5038607;28;974;-46
2021/10/14 04:39:10;;;;;;;;;;;14.70;99.90;;;;;;5054672;28;1140;-46
2021/10/14 04:41:38;;;;;;;;;;;14.70;99.90;;;;;;5056445;28;788;-46
2021/10/14 04:44:05;;;;;;;;;;;14.70;99.90;;;;;;5021498;28;1043;-46
2021/10/14 04:46:31;;;;;;;;;;;14.70;99.90;;;;;;5056055;28;1090;-46
2021/10/14 04:48:58;;;;;;;;;;;14.70;99.90;;;;;;5021676;28;977;-46
2021/10/14 04:51:28;;;;;;;;;;;14.60;99.90;;;;;;5054721;28;960;-46
2021/10/14 04:53:55;;;;;;;;;;;14.70;99.90;;;;;;5037207;28;1989;-46
2021/10/14 04:56:40;;;;;;;;;;;14.60;99.90;;;;;;5056120;28;682;-46
2021/10/14 04:59:07;;;;;;;;;;;14.70;99.90;;;;;;5038174;28;991;-46
2021/10/14 05:01:34;;;;;;;;;;;14.70;99.90;;;;;;5021747;28;1100;-46
2021/10/14 05:04:02;;;;;;;;;;;14.60;99.90;;;;;;5055664;28;1057;-46
2021/10/14 05:06:29;;;;;;;;;;;14.70;99.90;;;;;;5006172;28;1026;-47
2021/10/14 05:08:56;;;;;;;;;;;14.70;99.90;;;;;;5004897;28;2386;-47
2021/10/14 05:11:22;;;;;;;;;;;14.70;99.90;;;;;;5038001;28;1151;-47
2021/10/14 05:13:50;;;;;;;;;;;14.80;99.90;;;;;;5054896;28;1973;-47
2021/10/14 05:16:19;;;;;;;;;;;14.80;99.90;;;;;;5042486;28;1454;-47
2021/10/14 05:18:48;;;;;;;;;;;14.80;99.90;;;;;;5025469;28;1069;-47
2021/10/14 05:21:16;;;;;;;;;;;14.80;99.90;;;;;;5058872;28;1101;-47
2021/10/14 05:23:42;;;;;;;;;;;14.90;99.90;;;;;;5059165;28;1105;-47
2021/10/14 05:26:08;;;;;;;;;;;14.90;99.90;;;;;;5059126;28;871;-47
2021/10/14 05:28:36;;;;;;;;;;;14.90;99.90;;;;;;5058705;28;871;-47
2021/10/14 05:31:03;;;;;;;;;;;14.90;99.90;;;;;;5059603;28;1019;-47
2021/10/14 05:33:29;;;;;;;;;;;15.00;99.90;;;;;;5059785;28;1988;-47
2021/10/14 05:35:57;;;;;;;;;;;15.00;99.90;;;;;;5059792;28;1000;-47
2021/10/14 05:38:40;;;;;;;;;;;15.00;99.90;;;;;;5029721;28;970;-47
2021/10/14 05:41:06;;;;;;;;;;;15.00;99.90;;;;;;5059697;28;988;-47
2021/10/14 05:43:35;;;;;;;;;;;15.10;99.90;;;;;;5059555;28;971;-47
2021/10/14 05:46:06;;;;;;;;;;;15.10;99.90;;;;;;5042427;28;912;-47
2021/10/14 05:48:34;;;;;;;;;;;15.10;99.90;;;;;;5058147;28;940;-47
2021/10/14 05:51:02;;;;;;;;;;;15.10;99.90;;;;;;5056750;28;1567;-47
2021/10/14 05:53:29;;;;;;;;;;;15.10;99.90;;;;;;5022139;28;1902;-47
2021/10/14 05:55:54;;;;;;;;;;;15.10;99.90;;;;;;5038010;28;970;-47
2021/10/14 05:58:22;;;;;;;;;;;15.10;99.90;;;;;;5038240;28;1044;-47
2021/10/14 06:00:50;;;;;;;;;;;15.10;99.90;;;;;;5039401;28;804;-47
2021/10/14 06:03:19;;;;;;;;;;;15.10;99.90;;;;;;5039343;28;984;-47
2021/10/14 06:05:46;;;;;;;;;;;15.10;99.90;;;;;;5039069;28;1039;-47
2021/10/14 06:08:15;;;;;;;;;;;15.20;99.90;;;;;;5017650;28;2601;-47
2021/10/14 06:10:44;;;;;;;;;;;15.10;99.90;;;;;;4993449;28;1199;-47
2021/10/14 06:13:11;;;;;;;;;;;15.20;99.90;;;;;;4998097;28;1038;-48
2021/10/14 06:15:43;;;;;;;;;;;15.30;99.90;;;;;;4982067;28;1955;-49
2021/10/14 06:18:19;;;;;;;;;;;15.40;99.90;;;;;;4981352;28;947;-48
2021/10/14 06:20:45;;;;;;;;;;;15.60;99.90;;;;;;4981695;28;1013;-48
2021/10/14 06:23:11;;;;;;;;;;;15.70;99.90;;;;;;4990623;28;1223;-48
2021/10/14 06:25:39;;;;;;;;;;;15.80;99.90;;;;;;5016909;28;1079;-48
2021/10/14 06:28:05;;;;;;;;;;;15.90;99.90;;;;;;5017375;28;900;-48
2021/10/14 06:30:34;;;;;;;;;;;15.90;99.90;;;;;;5016814;28;1131;-48
2021/10/14 06:33:00;;;;;;;;;;;15.90;99.90;;;;;;5017231;28;960;-48
2021/10/14 06:35:27;;;;;;;;;;;16.00;99.90;;;;;;5001464;28;1910;-48
2021/10/14 06:37:55;;;;;;;;;;;16.00;99.90;;;;;;5016055;28;961;-48
2021/10/14 06:40:21;;;;;;;;;;;16.00;99.90;;;;;;5022892;28;976;-48
2021/10/14 06:42:49;;;;;;;;;;;16.00;99.90;;;;;;5040477;28;988;-48
2021/10/14 06:45:15;;;;;;;;;;;16.10;99.90;;;;;;5057045;28;1131;-48
2021/10/14 06:47:42;;;;;;;;;;;16.10;99.90;;;;;;5058549;28;821;-48
2021/10/14 06:50:15;;;;;;;;;;;16.20;99.90;;;;;;5049035;28;1691;-48
2021/10/14 06:52:42;;;;;;;;;;;16.30;99.90;;;;;;5026554;28;1775;-48
2021/10/14 06:55:09;;;;;;;;;;;16.30;99.90;;;;;;5035890;28;1973;-47
2021/10/14 06:57:36;;;;;;;;;;;16.30;99.90;;;;;;5019946;28;1272;-47
2021/10/14 07:00:04;;;;;;;;;;;16.40;99.90;;;;;;5019801;28;1858;-47
2021/10/14 07:02:29;;;;;;;;;;;16.40;99.90;;;;;;5019965;28;959;-47
2021/10/14 07:04:58;;;;;;;;;;;16.40;99.90;;;;;;5003648;28;1053;-48
2021/10/14 07:07:23;;;;;;;;;;;16.50;99.90;;;;;;5016024;28;1819;-47
2021/10/14 07:09:49;;;;;;;;;;;16.50;99.90;;;;;;5040728;28;1606;-48
2021/10/14 07:12:17;;;;;;;;;;;16.50;99.90;;;;;;5039473;28;908;-48
2021/10/14 07:14:43;;;;;;;;;;;16.50;99.90;;;;;;5041619;28;1983;-48
2021/10/14 07:17:11;;;;;;;;;;;16.50;99.90;;;;;;5003474;28;1076;-48
2021/10/14 07:19:39;;;;;;;;;;;16.60;99.90;;;;;;5035401;28;1030;-47
2021/10/14 07:22:05;;;;;;;;;;;16.60;99.90;;;;;;5018196;28;1010;-47
2021/10/14 07:24:46;;;;;;;;;;;16.60;99.90;;;;;;5045829;28;1790;-48
2021/10/14 07:27:13;;;;;;;;;;;16.60;99.90;;;;;;4990615;28;918;-48
2021/10/14 07:29:55;;;;;;;;;;;16.60;99.90;;;;;;5057178;28;764;-47
2021/10/14 07:32:22;;;;;;;;;;;16.60;99.90;;;;;;5055347;28;1032;-47
2021/10/14 07:34:51;;;;;;;;;;;16.60;99.90;;;;;;4990581;28;1915;-47
2021/10/14 07:37:20;;;;;;;;;;;16.60;99.90;;;;;;5039016;28;872;-47
2021/10/14 07:39:47;;;;;;;;;;;16.50;99.90;;;;;;5057082;28;987;-47
2021/10/14 07:42:15;;;;;;;;;;;16.50;99.90;;;;;;5006525;28;1139;-47
2021/10/14 07:44:45;;;;;;;;;;;16.50;99.90;;;;;;5057338;28;991;-47
2021/10/14 07:47:12;;;;;;;;;;;16.50;99.90;;;;;;5038364;28;1345;-47
2021/10/14 07:49:39;;;;;;;;;;;16.40;99.90;;;;;;5038528;28;956;-47
2021/10/14 07:52:16;;;;;;;;;;;16.40;99.90;;;;;;5056381;28;960;-47
2021/10/14 07:54:48;;;;;;;;;;;16.40;99.90;;;;;;5007003;28;1965;-47
2021/10/14 07:57:17;;;;;;;;;;;16.40;99.90;;;;;;5056597;28;1378;-47
2021/10/14 07:59:45;;;;;;;;;;;16.40;99.90;;;;;;5038723;28;1863;-47
2021/10/14 08:02:13;;;;;;;;;;;16.30;99.90;;;;;;5006465;28;966;-48
2021/10/14 08:04:48;;;;;;;;;;;16.30;99.90;;;;;;5022103;28;979;-48
2021/10/14 08:07:14;;;;;;;;;;;16.30;99.90;;;;;;5037530;28;1376;-48
2021/10/14 08:09:39;;;;;;;;;;;16.30;99.90;;;;;;5055863;28;1265;-48
2021/10/14 08:12:11;;;;;;;;;;;16.20;99.90;;;;;;5037823;28;1377;-48
2021/10/14 08:14:40;;;;;;;;;;;16.20;99.90;;;;;;5022244;28;1906;-48
2021/10/14 08:17:06;;;;;;;;;;;16.20;99.90;;;;;;4995620;28;1466;-48
2021/10/14 08:19:33;;;;;;;;;;;16.20;99.90;;;;;;5015288;28;968;-48
2021/10/14 08:22:01;;;;;;;;;;;16.20;99.90;;;;;;4995073;28;937;-48
2021/10/14 08:24:27;;;;;;;;;;;16.10;99.90;;;;;;4962600;28;1146;-48
2021/10/14 08:26:56;;;;;;;;;;;16.10;99.90;;;;;;4995443;28;944;-48
2021/10/14 08:29:23;;;;;;;;;;;16.10;99.90;;;;;;5011824;28;1177;-48
2021/10/14 08:31:53;;;;;;;;;;;16.10;99.90;;;;;;4995271;28;1007;-48
2021/10/14 08:34:20;;;;;;;;;;;16.10;99.90;;;;;;4995269;28;1915;-48
2021/10/14 08:36:48;;;;;;;;;;;16.30;99.90;;;;;;4995028;28;1207;-48
2021/10/14 08:39:15;;;;;;;;;;;16.80;99.90;;;;;;4959049;28;1469;-48
2021/10/14 08:41:44;;;;;;;;;;;17.40;99.90;;;;;;4978026;28;1458;-48
2021/10/14 08:44:13;;;;;;;;;;;17.80;99.90;;;;;;4995232;28;989;-48
2021/10/14 08:46:42;;;;;;;;;;;18.10;99.90;;;;;;4995364;28;980;-48
2021/10/14 08:49:09;;;;;;;;;;;18.30;99.90;;;;;;5012606;28;1258;-48
2021/10/14 08:51:37;;;;;;;;;;;18.40;99.90;;;;;;5014332;28;1313;-48
2021/10/14 08:54:04;;;;;;;;;;;18.50;99.90;;;;;;4980804;28;1902;-48
2021/10/14 08:56:33;;;;;;;;;;;18.30;99.90;;;;;;5013900;28;1417;-48
2021/10/14 08:59:00;;;;;;;;;;;18.10;99.90;;;;;;5026552;28;1482;-48
2021/10/14 09:01:27;;;;;;;;;;;18.10;99.90;;;;;;5055274;28;1348;-48
2021/10/14 09:03:54;;;;;;;;;;;18.00;99.90;;;;;;5055703;28;1404;-47
2021/10/14 09:06:20;;;;;;;;;;;18.10;99.90;;;;;;5056135;28;1015;-48
2021/10/14 09:08:52;;;;;;;;;;;18.20;99.90;;;;;;5055729;28;1022;-48
2021/10/14 09:11:27;;;;;;;;;;;18.20;99.90;;;;;;5071187;28;967;-48
2021/10/14 09:13:57;;;;;;;;;;;18.30;99.90;;;;;;5055142;28;1971;-48
2021/10/14 09:16:27;;;;;;;;;;;18.50;99.90;;;;;;5037738;28;1314;-48
2021/10/14 09:18:55;;;;;;;;;;;18.60;99.90;;;;;;5046049;28;1424;-48
2021/10/14 09:21:36;;;;;;;;;;;18.70;99.90;;;;;;5020837;28;1421;-49
2021/10/14 09:24:23;;;;;;;;;;;18.70;99.90;;;;;;5024021;28;1459;-48
2021/10/14 09:26:50;;;;;;;;;;;18.80;99.90;;;;;;5034065;28;1400;-48
2021/10/14 09:29:19;;;;;;;;;;;18.70;99.90;;;;;;5034880;28;1214;-49
2021/10/14 09:31:55;;;;;;;;;;;18.70;99.90;;;;;;4995472;28;1464;-49
2021/10/14 09:34:46;;;;;;;;;;;18.60;99.90;;;;;;5034716;28;1898;-49
2021/10/14 09:37:18;;;;;;;;;;;18.70;99.90;;;;;;4992834;28;1354;-48
2021/10/14 09:40:16;;;;;;;;;;;18.60;99.90;;;;;;4993925;28;1357;-48
2021/10/14 09:42:50;;;;;;;;;;;18.60;99.90;;;;;;4993652;28;1642;-48
2021/10/14 09:45:18;;;;;;;;;;;18.70;99.90;;;;;;4977899;28;1402;-48
2021/10/14 09:48:03;;;;;;;;;;;18.70;99.90;;;;;;4994003;28;1514;-49
2021/10/14 09:50:36;;;;;;;;;;;18.60;99.90;;;;;;4994206;28;1437;-49
2021/10/14 09:53:05;;;;;;;;;;;18.60;99.90;;;;;;4993761;28;1445;-48
2021/10/14 09:55:35;;;;;;;;;;;18.60;99.90;;;;;;4989159;28;1902;-48
2021/10/14 09:58:05;;;;;;;;;;;18.60;99.90;;;;;;4993863;28;1430;-48
2021/10/14 10:00:32;;;;;;;;;;;18.60;99.90;;;;;;4962432;28;1267;-48
2021/10/14 10:02:59;;;;;;;;;;;18.60;99.90;;;;;;4997522;28;959;-48
2021/10/14 10:05:26;;;;;;;;;;;18.60;99.90;;;;;;4972073;28;1284;-48
2021/10/14 10:07:53;;;;;;;;;;;18.60;99.90;;;;;;4997751;28;1428;-48
2021/10/14 10:10:22;;;;;;;;;;;18.60;99.90;;;;;;4998258;28;946;-49
2021/10/14 10:12:50;;;;;;;;;;;18.70;99.90;;;;;;4996287;28;1709;-48
2021/10/14 10:15:36;;;;;;;;;;;18.70;99.90;;;;;;5020498;28;1980;-49
2021/10/14 10:18:24;;;;;;;;;;;18.70;99.90;;;;;;5041604;28;1218;-48
2021/10/14 10:20:51;;;;;;;;;;;18.70;99.90;;;;;;5038084;28;1309;-49
2021/10/14 10:23:37;;;;;;;;;;;18.70;99.90;;;;;;5039893;28;1337;-48
2021/10/14 10:26:04;;;;;;;;;;;18.80;99.90;;;;;;5037591;28;1652;-49
2021/10/14 10:28:38;;;;;;;;;;;18.80;99.90;;;;;;5039739;28;1093;-49
2021/10/14 10:31:06;;;;;;;;;;;18.80;99.90;;;;;;5036092;28;1140;-49
2021/10/14 10:33:51;;;;;;;;;;;18.80;99.90;;;;;;5067048;28;1260;-49
2021/10/14 10:36:38;;;;;;;;;;;18.80;99.90;;;;;;5037431;28;1910;-49
2021/10/14 10:39:28;;;;;;;;;;;18.70;99.90;;;;;;5038736;28;1392;-49
2021/10/14 10:42:11;;;;;;;;;;;18.60;99.90;;;;;;5037762;28;1559;-49
2021/10/14 10:44:47;;;;;;;;;;;18.50;99.90;;;;;;5022273;28;1398;-49
2021/10/14 10:47:45;;;;;;;;;;;18.40;99.90;;;;;;5028335;28;1346;-49
2021/10/14 10:50:31;;;;;;;;;;;18.50;99.90;;;;;;5001556;28;1176;-48
2021/10/14 10:53:15;;;;;;;;;;;18.50;99.90;;;;;;5037608;28;1171;-49
2021/10/14 10:55:46;;;;;;;;;;;18.50;99.90;;;;;;5036674;28;1902;-50
2021/10/14 10:58:14;;;;;;;;;;;18.50;99.90;;;;;;5021173;22;2160;-50
2021/10/14 11:00:41;;;;;;;;;;;18.60;99.90;;;;;;5028142;28;1301;-45
2021/10/14 11:03:07;;;;;;;;;;;18.50;99.90;;;;;;5020530;28;1348;-45
2021/10/14 11:05:51;;;;;;;;;;;18.50;99.90;;;;;;5032491;28;1190;-45
2021/10/14 11:08:19;;;;;;;;;;;18.50;99.90;;;;;;5032837;28;1067;-44
2021/10/14 11:10:46;;;;;;;;;;;18.50;99.90;;;;;;5021948;28;231028;-45
2021/10/14 11:13:12;;;;;;;;;;;18.40;99.90;;;;;;5027840;28;1341;-45
2021/10/14 11:15:38;;;;;;;;;;;18.40;99.90;;;;;;5020378;28;1973;-45
2021/10/14 11:18:06;;;;;;;;;;;18.40;99.90;;;;;;5037628;28;834;-45
2021/10/14 11:20:33;;;;;;;;;;;18.40;99.90;;;;;;5037720;28;1382;-45
2021/10/14 11:23:05;;;;;;;;;;;18.40;99.90;;;;;;5026748;28;1437;-45
2021/10/14 11:25:32;;;;;;;;;;;18.40;99.90;;;;;;5005652;28;1389;-45
2021/10/14 11:28:06;;;;;;;;;;;18.40;99.90;;;;;;5025551;28;1210;-45
2021/10/14 11:30:55;;;;;;;;;;;18.40;99.90;;;;;;5016766;28;1000;-46
2021/10/14 11:33:30;;;;;;;;;;;18.40;99.90;;;;;;5017573;28;1020;-45
2021/10/14 11:35:57;;;;;;;;;;;18.40;99.90;;;;;;5017722;28;1906;-45
2021/10/14 11:38:23;;;;;;;;;;;18.40;99.90;;;;;;4999384;28;1144;-45
2021/10/14 11:40:49;;;;;;;;;;;18.40;99.90;;;;;;5022221;28;1329;-45
2021/10/14 11:43:15;;;;;;;;;;;18.40;99.90;;;;;;5029428;28;1354;-45
2021/10/14 11:45:41;;;;;;;;;;;18.40;99.90;;;;;;5037117;28;968;-45
2021/10/14 11:48:23;;;;;;;;;;;18.40;99.90;;;;;;5037334;28;765;-45
2021/10/14 11:50:59;;;;;;;;;;;18.40;99.90;;;;;;5036634;28;1217;-46
2021/10/14 11:53:25;;;;;;;;;;;18.40;99.90;;;;;;5024452;28;1207;-45
2021/10/14 11:56:02;;;;;;;;;;;18.40;99.90;;;;;;5024254;28;1983;-46
2021/10/14 11:58:28;;;;;;;;;;;18.40;99.90;;;;;;5007598;28;1255;-46
2021/10/14 12:00:56;;;;;;;;;;;18.50;99.90;;;;;;5015769;28;1396;-46
2021/10/14 12:03:22;;;;;;;;;;;18.50;99.90;;;;;;5010539;28;1206;-46
2021/10/14 12:05:48;;;;;;;;;;;18.50;99.90;;;;;;5006970;28;1345;-47
2021/10/14 12:08:16;;;;;;;;;;;18.50;99.90;;;;;;4997540;28;976;-46
2021/10/14 12:10:47;;;;;;;;;;;18.50;99.90;;;;;;4997752;28;998;-46
2021/10/14 12:13:14;;;;;;;;;;;18.40;99.90;;;;;;4995521;28;872;-46
2021/10/14 12:15:41;;;;;;;;;;;18.40;99.90;;;;;;4997259;28;1910;-46
2021/10/14 12:18:09;;;;;;;;;;;18.40;99.90;;;;;;4995844;28;1067;-46
2021/10/14 12:20:35;;;;;;;;;;;18.40;99.90;;;;;;5002930;28;1250;-46
2021/10/14 12:23:05;;;;;;;;;;;18.50;99.90;;;;;;4995253;28;1088;-46
2021/10/14 12:25:36;;;;;;;;;;;18.50;99.90;;;;;;4997926;28;1210;-46
2021/10/14 12:28:04;;;;;;;;;;;18.60;99.90;;;;;;5012246;28;1369;-46
2021/10/14 12:30:39;;;;;;;;;;;18.60;99.90;;;;;;5016435;28;912;-46
2021/10/14 12:33:12;;;;;;;;;;;18.60;99.90;;;;;;4998466;28;1146;-46
2021/10/14 12:36:01;;;;;;;;;;;18.70;99.90;;;;;;5016110;28;1959;-46
2021/10/14 12:38:40;;;;;;;;;;;18.70;99.90;;;;;;5006118;28;1117;-46
2021/10/14 12:41:11;;;;;;;;;;;18.80;99.90;;;;;;5016629;28;935;-46
2021/10/14 12:43:40;;;;;;;;;;;18.80;99.90;;;;;;5015701;28;1004;-46
2021/10/14 12:46:22;;;;;;;;;;;18.80;99.90;;;;;;5016444;28;1038;-46
2021/10/14 12:48:53;;;;;;;;;;;18.80;99.90;;;;;;5016268;28;908;-46
2021/10/14 12:51:24;;;;;;;;;;;18.90;99.90;;;;;;5016502;28;995;-46
2021/10/14 12:53:55;;;;;;;;;;;18.90;99.90;;;;;;5015977;28;1016;-46
2021/10/14 12:56:31;;;;;;;;;;;19.00;99.90;;;;;;5016478;28;1977;-46
2021/10/14 12:59:03;;;;;;;;;;;18.90;99.90;;;;;;5032939;28;1386;-46
2021/10/14 13:01:28;;;;;;;;;;;19.00;99.90;;;;;;5036229;28;920;-47
2021/10/14 13:03:54;;;;;;;;;;;19.00;99.90;;;;;;5035510;28;948;-46
2021/10/14 13:06:20;;;;;;;;;;;19.00;99.90;;;;;;5035204;28;876;-46
2021/10/14 13:08:47;;;;;;;;;;;19.00;99.90;;;;;;5018337;28;1345;-46
2021/10/14 13:11:16;;;;;;;;;;;19.00;99.90;;;;;;5026900;28;1218;-46
2021/10/14 13:13:42;;;;;;;;;;;19.10;99.90;;;;;;5015553;28;1605;-46
2021/10/14 13:16:09;;;;;;;;;;;19.10;99.90;;;;;;5026568;28;1975;-46
2021/10/14 13:18:35;;;;;;;;;;;19.10;99.90;;;;;;5032403;28;1426;-46
2021/10/14 13:21:02;;;;;;;;;;;19.10;99.90;;;;;;5034161;28;1163;-46
2021/10/14 13:23:29;;;;;;;;;;;18.90;99.90;;;;;;5035951;28;988;-46
2021/10/14 13:25:56;;;;;;;;;;;18.60;99.90;;;;;;5037625;28;1010;-46
2021/10/14 13:28:25;;;;;;;;;;;18.50;99.90;;;;;;5028656;28;941;-46
2021/10/14 13:30:51;;;;;;;;;;;18.40;99.90;;;;;;5018179;28;860;-46
2021/10/14 13:33:20;;;;;;;;;;;18.20;99.90;;;;;;5002275;28;1246;-46
2021/10/14 13:35:47;;;;;;;;;;;18.00;99.90;;;;;;5036754;28;1906;-46
2021/10/14 13:38:14;;;;;;;;;;;17.90;99.90;;;;;;5039837;28;986;-46
2021/10/14 13:40:43;;;;;;;;;;;17.80;99.90;;;;;;5039246;28;995;-46
2021/10/14 13:46:05;;;;;;;;;;;17.60;99.90;;;;;;5026054;28;1272;-46
2021/10/14 13:48:31;;;;;;;;;;;17.60;99.90;;;;;;5038881;28;1262;-46
2021/10/14 13:50:58;;;;;;;;;;;17.70;99.90;;;;;;5038993;28;1086;-46
2021/10/14 13:53:24;;;;;;;;;;;17.90;99.90;;;;;;5033197;28;1270;-46
2021/10/14 13:55:52;;;;;;;;;;;18.00;99.90;;;;;;5024784;28;1973;-46
2021/10/14 13:58:18;;;;;;;;;;;18.00;99.90;;;;;;5012504;28;1353;-46
2021/10/14 14:00:47;;;;;;;;;;;18.00;99.90;;;;;;5025399;28;1443;-46
2021/10/14 14:03:13;;;;;;;;;;;17.90;99.90;;;;;;5019050;28;1060;-47
2021/10/14 14:05:40;;;;;;;;;;;17.80;99.90;;;;;;5021621;28;1472;-46
2021/10/14 14:08:06;;;;;;;;;;;17.80;99.90;;;;;;5026586;28;1349;-46
2021/10/14 14:10:32;;;;;;;;;;;17.70;99.90;;;;;;5028399;28;1226;-46
2021/10/14 14:13:00;;;;;;;;;;;17.70;99.90;;;;;;5033552;28;1263;-46
2021/10/14 14:15:27;;;;;;;;;;;17.70;99.90;;;;;;5020201;28;1906;-46
2021/10/14 14:17:53;;;;;;;;;;;17.60;99.90;;;;;;5019358;28;1183;-46
2021/10/14 14:20:19;;;;;;;;;;;17.60;99.90;;;;;;5025022;28;1172;-47
2021/10/14 14:22:44;;;;;;;;;;;17.60;99.90;;;;;;5019213;28;1003;-46
2021/10/14 14:25:10;;;;;;;;;;;17.60;99.90;;;;;;5001428;28;1697;-46
2021/10/14 14:27:37;;;;;;;;;;;17.60;99.90;;;;;;5021587;28;1047;-46
2021/10/14 14:30:04;;;;;;;;;;;17.60;99.90;;;;;;5032437;28;1222;-46
2021/10/14 14:32:30;;;;;;;;;;;17.60;99.90;;;;;;5035465;28;1325;-46
2021/10/14 14:34:55;;;;;;;;;;;17.60;99.90;;;;;;5038547;28;1957;-46
2021/10/14 14:37:24;;;;;;;;;;;17.70;99.90;;;;;;5038230;28;976;-46
2021/10/14 14:39:50;;;;;;;;;;;17.70;99.90;;;;;;5013754;28;1206;-47
2021/10/14 14:42:16;;;;;;;;;;;17.80;99.90;;;;;;5019175;28;1369;-46
2021/10/14 14:44:42;;;;;;;;;;;17.80;99.90;;;;;;5038216;28;918;-46
2021/10/14 14:47:08;;;;;;;;;;;17.80;99.90;;;;;;5038067;28;941;-46